Time;durP1;ratioP1;P1;durP2;ratioP2;P2;SDS_P1;SDS_P2;PMS_P1;PMS_P2;Temp;Humidity;BMP_temperature;BMP_pressure;BME280_temperature;BME280_humidity;BME280_pressure;Samples;Min_cycle;Max_cycle;Signal;HPM_P1;HPM_P2
2022/08/05 00:00:04;;;;;;;11.35;7.70;;;;;;;21.71;51.11;99371.66;5009809;28;20032;-73
2022/08/05 00:02:30;;;;;;;11.35;8.13;;;;;;;21.38;51.95;99362.44;5010966;28;20026;-73
2022/08/05 00:04:55;;;;;;;8.70;7.30;;;;;;;20.95;53.18;99369.06;5014122;28;20037;-73
2022/08/05 00:07:20;;;;;;;16.48;7.47;;;;;;;20.59;54.44;99381.22;5029337;28;20400;-73
2022/08/05 00:09:46;;;;;;;10.32;6.72;;;;;;;20.40;54.97;99376.75;5029361;28;20022;-73
2022/08/05 00:12:11;;;;;;;10.07;7.28;;;;;;;19.96;56.44;99387.22;5030744;28;20076;-73
2022/08/05 00:14:37;;;;;;;11.63;6.72;;;;;;;20.17;56.00;99385.66;5028233;28;20063;-73
2022/08/05 00:17:02;;;;;;;8.68;7.13;;;;;;;20.22;55.94;99382.41;5009685;28;20088;-73
2022/08/05 00:19:28;;;;;;;12.32;6.72;;;;;;;20.11;56.15;99381.56;5031474;28;20369;-73
2022/08/05 00:21:53;;;;;;;8.60;6.95;;;;;;;20.16;56.09;99382.00;5034141;28;20025;-73
2022/08/05 00:24:19;;;;;;;10.15;7.03;;;;;;;20.16;55.93;99381.19;5030588;28;20501;-73
2022/08/05 00:26:44;;;;;;;9.02;6.20;;;;;;;20.24;55.76;99374.28;5014426;28;20038;-73
2022/08/05 00:29:10;;;;;;;18.05;10.45;;;;;;;20.57;54.66;99365.78;5014272;28;20091;-73
2022/08/05 00:31:35;;;;;;;8.00;6.15;;;;;;;20.68;53.80;99366.59;5029555;28;20033;-73
2022/08/05 00:34:01;;;;;;;8.18;5.60;;;;;;;20.69;53.92;99364.56;5018292;28;20064;-73
2022/08/05 00:36:26;;;;;;;7.32;5.68;;;;;;;20.68;53.80;99366.59;5031207;28;20021;-73
2022/08/05 00:38:52;;;;;;;5.72;5.20;;;;;;;20.84;53.18;99360.53;5033891;28;20024;-73
2022/08/05 00:41:31;;;;;;;9.30;5.82;;;;;;;20.62;54.19;99366.19;5033733;28;20463;-73
2022/08/05 00:43:57;;;;;;;9.23;6.33;;;;;;;20.36;55.04;99373.09;5032049;28;20043;-73
2022/08/05 00:46:23;;;;;;;7.82;6.55;;;;;;;19.98;55.90;99370.59;5029891;28;20033;-73
2022/08/05 00:48:49;;;;;;;8.02;6.03;;;;;;;20.27;55.09;99367.81;5032372;28;20025;-73
2022/08/05 00:51:15;;;;;;;8.93;6.15;;;;;;;20.45;54.56;99364.16;5033612;28;20459;-73
2022/08/05 00:53:40;;;;;;;9.13;5.90;;;;;;;20.81;53.18;99364.19;5033581;28;20083;-73
2022/08/05 00:56:06;;;;;;;6.85;5.53;;;;;;;21.10;52.20;99357.63;5031928;28;20495;-73
2022/08/05 00:58:32;;;;;;;8.32;6.40;;;;;;;21.40;51.57;99362.81;5033604;28;20105;-73
2022/08/05 01:00:57;;;;;;;10.15;6.40;;;;;;;21.44;51.39;99365.66;5033447;28;20465;-73
2022/08/05 01:03:24;;;;;;;8.40;6.78;;;;;;;21.03;52.06;99359.25;5033480;28;20017;-73
2022/08/05 01:05:52;;;;;;;11.52;7.13;;;;;;;20.83;52.70;99367.44;5020122;28;20404;-73
2022/08/05 01:08:18;;;;;;;7.82;6.50;;;;;;;20.50;53.61;99362.97;5030732;28;20060;-73
2022/08/05 01:10:56;;;;;;;8.15;6.10;;;;;;;20.45;53.97;99364.16;5032181;28;20035;-73
2022/08/05 01:13:46;;;;;;;19.33;7.18;;;;;;;20.58;53.93;99371.06;5032370;28;20389;-73
2022/08/05 01:16:28;;;;;;;9.43;6.53;;;;;;;21.09;52.57;99362.50;5017255;28;20029;-73
2022/08/05 01:18:59;;;;;;;7.53;6.53;;;;;;;21.45;51.67;99359.53;5017155;28;20094;-73
2022/08/05 01:21:39;;;;;;;10.32;7.38;;;;;;;21.72;51.27;99361.91;5033075;28;20033;-73
2022/08/05 01:24:23;;;;;;;8.93;6.40;;;;;;;21.90;50.57;99375.22;5033113;28;20033;-73
2022/08/05 01:27:26;;;;;;;6.85;6.07;;;;;;;21.93;50.77;99376.44;5013104;28;20408;-73
2022/08/05 01:29:55;;;;;;;7.93;6.57;;;;;;;21.55;51.28;99371.31;5012880;28;20125;-73
2022/08/05 01:32:24;;;;;;;13.82;7.95;;;;;;;20.95;52.78;99371.91;5027082;28;20021;-73
2022/08/05 01:35:07;;;;;;;8.73;6.65;;;;;;;20.34;54.63;99362.13;5018251;28;20105;-73
2022/08/05 01:37:40;;;;;;;8.90;7.47;;;;;;;20.26;55.18;99366.19;5032358;28;20104;-73
2022/08/05 01:40:07;;;;;;;8.45;7.18;;;;;;;19.97;56.03;99363.31;5032766;28;20029;-73
2022/08/05 01:42:35;;;;;;;11.05;7.35;;;;;;;20.04;55.97;99366.16;5032572;28;20100;-73
2022/08/05 01:45:02;;;;;;;13.93;7.65;;;;;;;20.05;55.64;99372.63;5024792;28;20021;-73
2022/08/05 01:47:30;;;;;;;12.00;8.05;;;;;;;20.14;55.87;99372.25;5031258;28;20116;-73
2022/08/05 01:49:57;;;;;;;8.52;7.30;;;;;;;20.13;55.63;99364.94;5032347;28;20021;-73
2022/08/05 01:52:24;;;;;;;10.13;7.38;;;;;;;19.85;56.52;99372.16;5031210;28;20025;-73
2022/08/05 01:54:56;;;;;;;8.50;7.25;;;;;;;19.82;56.76;99362.41;5023952;28;20408;-73
2022/08/05 01:57:28;;;;;;;7.63;6.82;;;;;;;19.83;56.69;99372.56;5031314;28;20025;-73
2022/08/05 01:59:57;;;;;;;9.60;7.22;;;;;;;20.09;55.94;99369.81;5031210;28;20031;-73
2022/08/05 02:02:24;;;;;;;9.13;6.47;;;;;;;20.08;55.87;99369.00;5014845;28;20018;-73
2022/08/05 02:04:53;;;;;;;12.05;6.95;;;;;;;19.96;56.13;99360.84;5019311;28;20033;-73
2022/08/05 02:07:19;;;;;;;10.10;7.03;;;;;;;19.49;57.17;99370.81;5031987;28;20029;-73
2022/08/05 02:09:45;;;;;;;9.02;6.72;;;;;;;19.21;58.03;99368.66;5031345;28;20029;-72
2022/08/05 02:12:35;;;;;;;16.80;6.72;;;;;;;19.53;57.36;99375.69;5030694;28;20084;-73
2022/08/05 02:15:34;;;;;;;10.52;6.60;;;;;;;19.56;57.10;99372.88;5031309;28;20433;-73
2022/08/05 02:18:08;;;;;;;15.18;6.82;;;;;;;19.29;57.93;99372.34;4993915;28;20025;-73
2022/08/05 02:20:54;;;;;;;11.93;7.93;;;;;;;19.08;58.78;99365.34;5032001;28;20037;-73
2022/08/05 02:23:28;;;;;;;11.23;7.55;;;;;;;18.76;59.65;99365.91;5011840;28;20037;-72
2022/08/05 02:25:56;;;;;;;14.55;6.63;;;;;;;18.74;59.68;99369.13;5012623;28;20048;-73
2022/08/05 02:28:26;;;;;;;21.15;7.75;;;;;;;18.60;59.79;99364.19;5011986;28;20582;-72
2022/08/05 02:30:59;;;;;;;12.32;8.05;;;;;;;18.48;60.15;99358.84;5011002;28;20026;-73
2022/08/05 02:33:25;;;;;;;14.70;7.60;;;;;;;18.63;60.17;99363.41;5011927;28;20026;-72
2022/08/05 02:35:55;;;;;;;8.98;8.02;;;;;;;18.71;59.78;99371.97;5025085;28;20087;-73
2022/08/05 02:38:22;;;;;;;8.73;7.80;;;;;;;18.79;59.76;99365.13;5030735;28;20021;-72
2022/08/05 02:40:47;;;;;;;9.98;7.80;;;;;;;18.91;59.38;99376.13;5030954;28;20436;-73
2022/08/05 02:43:15;;;;;;;10.77;7.28;;;;;;;18.81;59.57;99374.03;5021549;28;20093;-73
2022/08/05 02:45:41;;;;;;;16.83;7.90;;;;;;;18.67;59.89;99375.56;5022832;28;20113;-73
2022/08/05 02:48:08;;;;;;;9.25;6.78;;;;;;;18.55;60.52;99366.56;5031278;28;20096;-73
2022/08/05 02:50:35;;;;;;;16.20;7.30;;;;;;;18.45;61.03;99365.25;5031466;28;20163;-73
2022/08/05 02:53:02;;;;;;;9.63;7.18;;;;;;;18.35;61.28;99364.78;5030440;28;20078;-73
2022/08/05 02:55:30;;;;;;;7.97;7.18;;;;;;;18.19;61.45;99362.22;5030685;28;20499;-73
2022/08/05 02:57:57;;;;;;;10.23;7.43;;;;;;;18.05;62.18;99370.56;5030111;28;20026;-73
2022/08/05 03:00:22;;;;;;;12.88;8.13;;;;;;;18.08;62.30;99362.09;5011772;28;20093;-73
2022/08/05 03:02:49;;;;;;;11.23;8.68;;;;;;;18.11;62.12;99366.16;5011433;28;20022;-72
2022/08/05 03:05:15;;;;;;;16.10;8.38;;;;;;;17.91;62.91;99365.53;5010584;28;20026;-73
2022/08/05 03:07:43;;;;;;;14.63;8.10;;;;;;;17.79;63.58;99381.56;5024099;28;20026;-73
2022/08/05 03:10:09;;;;;;;19.02;7.78;;;;;;;17.87;63.21;99373.19;5028893;28;20055;-72
2022/08/05 03:12:37;;;;;;;9.70;7.65;;;;;;;17.94;63.01;99368.41;5029954;28;20025;-72
2022/08/05 03:15:04;;;;;;;14.05;7.00;;;;;;;17.89;63.12;99370.78;5029084;28;20500;-72
2022/08/05 03:17:30;;;;;;;17.05;7.38;;;;;;;17.85;63.24;99365.06;5036875;28;20532;-72
2022/08/05 03:19:55;;;;;;;11.35;7.38;;;;;;;17.88;63.25;99371.97;5050362;28;20120;-73
2022/08/05 03:22:21;;;;;;;15.68;8.27;;;;;;;17.95;63.14;99372.88;5036019;28;20040;-73
2022/08/05 03:24:49;;;;;;;12.82;7.47;;;;;;;17.99;63.13;99378.56;5027520;28;20026;-73
2022/08/05 03:27:14;;;;;;;17.02;8.05;;;;;;;18.13;63.00;99377.13;5010134;28;20026;-73
2022/08/05 03:29:40;;;;;;;13.57;7.70;;;;;;;18.28;62.47;99381.69;5011451;28;20437;-73
2022/08/05 03:32:07;;;;;;;11.55;8.65;;;;;;;18.25;62.35;99382.50;5020244;28;20087;-74
2022/08/05 03:34:34;;;;;;;18.38;8.60;;;;;;;18.30;62.19;99387.78;5030774;28;20104;-73
2022/08/05 03:37:01;;;;;;;15.68;8.30;;;;;;;18.29;62.22;99377.66;5021052;28;20022;-74
2022/08/05 03:39:27;;;;;;;18.73;8.60;;;;;;;18.39;62.01;99378.97;5013953;28;20034;-73
2022/08/05 03:41:53;;;;;;;33.33;10.18;;;;;;;18.22;62.57;99383.25;5031039;28;20028;-73
2022/08/05 03:44:19;;;;;;;12.43;8.75;;;;;;;18.18;62.59;99385.25;5019905;28;20419;-75
2022/08/05 03:46:44;;;;;;;16.23;8.23;;;;;;;18.09;62.91;99386.34;5009977;28;20030;-72
2022/08/05 03:49:10;;;;;;;13.07;8.57;;;;;;;18.15;62.98;99389.66;5011143;28;20033;-73
2022/08/05 03:51:41;;;;;;;18.38;8.57;;;;;;;18.23;62.60;99367.91;5038058;28;20128;-73
2022/08/05 03:54:16;;;;;;;20.95;9.07;;;;;;;18.41;62.31;99389.91;5034094;28;20037;-73
2022/08/05 03:56:45;;;;;;;25.42;8.70;;;;;;;18.42;62.61;99392.34;5034332;28;20029;-73
2022/08/05 03:59:20;;;;;;;22.13;9.50;;;;;;;18.54;61.83;99379.91;5028990;28;20026;-73
2022/08/05 04:01:48;;;;;;;13.07;9.20;;;;;;;18.65;61.61;99394.97;5039727;28;20041;-73
2022/08/05 04:04:15;;;;;;;16.15;8.13;;;;;;;18.81;61.07;99396.69;5031079;28;20032;-73
2022/08/05 04:06:41;;;;;;;22.75;9.10;;;;;;;18.76;61.17;99395.06;5028716;28;20029;-73
2022/08/05 04:09:07;;;;;;;28.83;9.05;;;;;;;18.93;60.60;99395.59;5034607;28;20108;-73
2022/08/05 04:11:35;;;;;;;30.00;8.45;;;;;;;18.94;60.74;99395.19;5033820;28;20040;-73
2022/08/05 04:14:01;;;;;;;27.30;8.07;;;;;;;19.03;60.69;99391.22;5017285;28;20049;-73
2022/08/05 04:16:27;;;;;;;23.35;9.52;;;;;;;19.08;60.29;99396.53;5014647;28;20566;-73
2022/08/05 04:18:52;;;;;;;21.65;9.18;;;;;;;19.21;60.28;99394.16;5014601;28;20087;-70
2022/08/05 04:21:18;;;;;;;20.05;10.65;;;;;;;19.30;59.66;99386.13;5018817;28;20029;-70
2022/08/05 04:23:44;;;;;;;21.90;9.93;;;;;;;19.41;59.88;99393.88;5033736;28;20025;-70
2022/08/05 04:26:09;;;;;;;18.80;9.20;;;;;;;19.53;59.18;99382.19;5034219;28;20104;-69
2022/08/05 04:28:35;;;;;;;13.40;7.82;;;;;;;19.71;58.87;99373.75;5034152;28;20602;-70
2022/08/05 04:31:00;;;;;;;21.15;7.85;;;;;;;19.84;58.51;99379.06;5031738;28;20088;-69
2022/08/05 04:33:26;;;;;;;13.15;7.88;;;;;;;19.91;57.78;99362.06;5021874;28;20029;-69
2022/08/05 04:35:52;;;;;;;19.20;7.68;;;;;;;19.90;57.38;99371.75;5028867;28;20405;-70
2022/08/05 04:38:17;;;;;;;20.77;8.32;;;;;;;19.86;57.63;99371.78;5013004;28;20548;-70
2022/08/05 04:40:42;;;;;;;15.05;7.57;;;;;;;20.19;56.82;99369.03;5013242;28;20033;-69
2022/08/05 04:43:08;;;;;;;12.15;7.25;;;;;;;20.20;56.17;99356.44;5031575;28;20104;-70
2022/08/05 04:45:34;;;;;;;7.70;6.63;;;;;;;20.35;56.03;99368.63;5033826;28;20026;-70
2022/08/05 04:48:04;;;;;;;16.92;7.05;;;;;;;20.40;55.82;99358.91;5033770;28;20082;-70
2022/08/05 04:50:30;;;;;;;12.13;6.68;;;;;;;20.47;54.85;99354.03;5032921;28;20040;-70
2022/08/05 04:52:56;;;;;;;13.32;7.25;;;;;;;20.62;54.73;99360.50;5017428;28;20073;-70
2022/08/05 04:55:21;;;;;;;12.93;7.28;;;;;;;20.70;54.35;99358.50;5014897;28;20540;-70
2022/08/05 04:57:47;;;;;;;7.50;6.03;;;;;;;20.96;53.55;99352.78;5023334;28;20508;-70
2022/08/05 05:00:13;;;;;;;14.98;8.20;;;;;;;21.11;52.26;99354.38;5030903;28;20060;-70
2022/08/05 05:02:38;;;;;;;13.75;7.35;;;;;;;21.11;52.27;99360.06;5013750;28;20022;-70
2022/08/05 05:05:05;;;;;;;12.68;6.43;;;;;;;21.18;52.01;99362.88;5014986;28;20022;-70
2022/08/05 05:07:30;;;;;;;11.88;6.68;;;;;;;21.31;52.09;99351.91;5032913;28;20037;-70
2022/08/05 05:09:56;;;;;;;11.90;6.78;;;;;;;21.48;50.96;99349.38;5027882;28;20423;-72
2022/08/05 05:12:21;;;;;;;10.18;6.75;;;;;;;21.61;50.59;99355.44;5031874;28;20037;-70
2022/08/05 05:14:47;;;;;;;10.63;6.82;;;;;;;21.53;50.34;99357.47;5031791;28;20046;-70
2022/08/05 05:17:12;;;;;;;10.63;6.70;;;;;;;21.53;50.04;99351.00;5032124;28;20068;-73
2022/08/05 05:19:39;;;;;;;12.60;7.47;;;;;;;21.74;50.42;99359.47;5028605;28;20124;-74
2022/08/05 05:22:05;;;;;;;8.75;7.30;;;;;;;21.87;49.79;99347.59;5020967;28;20026;-73
2022/08/05 05:24:31;;;;;;;11.02;6.78;;;;;;;21.97;49.43;99334.50;5021647;28;20025;-76
2022/08/05 05:26:57;;;;;;;23.30;8.98;;;;;;;22.20;49.10;99339.63;5024554;28;20112;-73
2022/08/05 05:29:22;;;;;;;8.95;7.32;;;;;;;22.23;48.83;99350.22;5029358;28;20029;-73
2022/08/05 05:31:48;;;;;;;11.48;7.90;;;;;;;22.24;48.56;99348.16;5030694;28;20025;-73
2022/08/05 05:34:13;;;;;;;22.60;8.70;;;;;;;22.36;48.81;99346.88;5023450;28;20018;-73
2022/08/05 05:36:39;;;;;;;25.63;10.27;;;;;;;22.45;48.41;99341.50;5025416;28;20565;-74
2022/08/05 05:39:04;;;;;;;10.15;7.18;;;;;;;22.44;48.34;99345.56;5017989;28;20032;-73
2022/08/05 05:41:30;;;;;;;10.57;6.47;;;;;;;22.49;48.36;99353.69;5020998;28;20045;-73
2022/08/05 05:43:55;;;;;;;9.90;6.68;;;;;;;22.46;47.79;99348.00;5035841;28;20021;-73
2022/08/05 05:46:21;;;;;;;6.82;5.63;;;;;;;22.61;47.70;99352.38;5034665;28;20049;-73
2022/08/05 05:48:46;;;;;;;9.48;5.88;;;;;;;22.70;47.60;99357.59;5031139;28;20021;-73
2022/08/05 05:51:20;;;;;;;15.30;6.53;;;;;;;22.84;46.98;99348.91;5032530;28;20104;-76
2022/08/05 05:53:46;;;;;;;12.35;6.70;;;;;;;22.94;46.45;99354.94;5030546;28;20503;-76
2022/08/05 05:56:12;;;;;;;9.50;5.93;;;;;;;22.95;46.59;99354.50;5020613;28;20168;-76
2022/08/05 05:58:37;;;;;;;11.07;6.22;;;;;;;23.18;46.14;99352.25;5026723;28;20354;-72
2022/08/05 06:01:02;;;;;;;13.20;7.00;;;;;;;23.38;46.17;99361.78;5043801;28;20029;-72
2022/08/05 06:03:28;;;;;;;13.38;6.65;;;;;;;23.64;45.49;99350.06;5024054;28;20404;-73
2022/08/05 06:05:53;;;;;;;6.68;5.47;;;;;;;23.73;44.44;99347.50;5022772;28;20095;-74
2022/08/05 06:08:19;;;;;;;5.70;5.18;;;;;;;23.83;43.71;99352.28;5027994;28;20032;-72
2022/08/05 06:10:44;;;;;;;10.55;5.63;;;;;;;24.13;43.48;99355.53;5025627;28;20025;-73
2022/08/05 06:13:10;;;;;;;11.35;5.82;;;;;;;24.25;43.60;99348.41;5029698;28;20034;-72
2022/08/05 06:15:35;;;;;;;6.55;5.25;;;;;;;24.30;43.10;99349.97;5024660;28;20025;-73
2022/08/05 06:18:01;;;;;;;9.10;5.00;;;;;;;24.40;43.29;99346.94;5031476;28;20041;-73
2022/08/05 06:20:26;;;;;;;8.90;5.70;;;;;;;24.62;43.11;99346.56;5025698;28;20040;-74
2022/08/05 06:22:52;;;;;;;5.78;5.28;;;;;;;24.72;43.11;99341.91;5029997;28;20119;-74
2022/08/05 06:25:17;;;;;;;7.53;5.53;;;;;;;24.54;43.39;99343.03;5023372;28;20033;-73
2022/08/05 06:27:42;;;;;;;11.30;6.43;;;;;;;24.74;42.96;99330.03;5026627;28;20029;-71
2022/08/05 06:30:14;;;;;;;8.55;5.13;;;;;;;24.92;42.75;99338.31;5029316;28;20404;-71
2022/08/05 06:32:40;;;;;;;8.00;5.47;;;;;;;25.06;42.33;99340.13;5032143;28;20025;-72
2022/08/05 06:35:07;;;;;;;10.02;5.50;;;;;;;24.97;42.77;99348.47;5017564;28;20026;-74
2022/08/05 06:37:32;;;;;;;8.25;5.20;;;;;;;25.20;42.86;99344.72;5029669;28;20040;-73
2022/08/05 06:39:58;;;;;;;9.70;5.32;;;;;;;25.04;40.80;99337.69;5032530;28;20052;-72
2022/08/05 06:42:23;;;;;;;9.50;5.60;;;;;;;25.20;41.28;99324.69;5027970;28;20025;-74
2022/08/05 06:44:49;;;;;;;7.47;5.32;;;;;;;25.12;41.22;99334.69;5016994;28;20022;-72
2022/08/05 06:47:14;;;;;;;13.50;6.13;;;;;;;25.30;41.71;99335.13;5017439;28;20041;-71
2022/08/05 06:49:39;;;;;;;5.70;5.20;;;;;;;25.49;40.94;99332.75;5018461;28;20512;-72
2022/08/05 06:52:05;;;;;;;5.80;5.30;;;;;;;25.65;39.79;99337.72;5023166;28;20064;-74
2022/08/05 06:54:31;;;;;;;7.93;5.40;;;;;;;25.27;40.68;99336.00;5010754;28;20084;-74
2022/08/05 06:56:56;;;;;;;6.15;5.28;;;;;;;25.45;39.89;99329.09;5023230;28;20058;-75
2022/08/05 06:59:21;;;;;;;11.07;6.07;;;;;;;25.68;40.40;99336.00;5027514;28;20040;-74
2022/08/05 07:01:47;;;;;;;6.32;5.05;;;;;;;25.80;39.60;99335.34;5027404;28;20022;-75
2022/08/05 07:04:12;;;;;;;27.77;5.93;;;;;;;26.06;40.49;99333.50;5030241;28;20049;-73
2022/08/05 07:06:38;;;;;;;10.55;6.00;;;;;;;26.30;39.63;99335.44;5030402;28;20543;-75
2022/08/05 07:09:04;;;;;;;7.80;4.85;;;;;;;26.57;39.57;99340.13;5030666;28;20068;-75
2022/08/05 07:11:29;;;;;;;5.40;4.80;;;;;;;26.72;39.09;99338.47;5027291;28;20029;-74
2022/08/05 07:16:49;;;;;;;7.63;5.32;;;;;;;27.18;39.09;99329.88;5016563;28;20499;-74
2022/08/05 07:19:19;;;;;;;9.95;5.20;;;;;;;27.00;39.11;99338.22;5011491;28;20038;-74
2022/08/05 07:22:03;;;;;;;7.68;5.15;;;;;;;27.21;38.55;99338.84;5027907;28;20032;-74
2022/08/05 07:24:28;;;;;;;9.00;4.90;;;;;;;27.39;38.17;99332.59;5030165;28;20037;-73
2022/08/05 07:26:54;;;;;;;10.25;5.43;;;;;;;27.50;37.28;99335.16;5021103;28;20113;-75
2022/08/05 07:29:19;;;;;;;7.93;5.03;;;;;;;27.59;37.78;99330.38;5021602;28;20030;-74
2022/08/05 07:31:45;;;;;;;6.63;4.53;;;;;;;27.47;37.69;99334.81;5034614;28;20041;-73
2022/08/05 07:34:11;;;;;;;7.95;5.45;;;;;;;27.75;37.75;99331.56;5030717;28;20029;-74
2022/08/05 07:36:36;;;;;;;6.78;5.35;;;;;;;27.81;37.65;99329.72;5019213;28;20518;-73
2022/08/05 07:39:05;;;;;;;8.70;5.65;;;;;;;28.02;37.52;99331.13;5035025;28;20049;-73
2022/08/05 07:41:31;;;;;;;8.45;4.82;;;;;;;28.24;37.20;99323.91;5034621;28;20532;-73
2022/08/05 07:43:58;;;;;;;6.57;5.10;;;;;;;28.35;37.20;99323.56;5033631;28;20030;-74
2022/08/05 07:46:28;;;;;;;10.75;5.20;;;;;;;28.22;35.87;99329.31;5033828;28;20065;-76
2022/08/05 07:48:56;;;;;;;37.15;5.95;;;;;;;28.24;35.80;99327.59;5030454;28;20029;-75
2022/08/05 07:51:22;;;;;;;11.15;4.60;;;;;;;28.47;35.46;99321.91;5032449;28;20032;-73
2022/08/05 07:53:47;;;;;;;110.05;10.07;;;;;;;28.52;35.30;99319.25;5032272;28;20415;-73
2022/08/05 07:56:13;;;;;;;78.88;43.95;;;;;;;28.83;35.58;99317.81;5034097;28;20060;-73
2022/08/05 07:58:38;;;;;;;33.05;16.80;;;;;;;28.92;34.53;99328.66;5032492;28;20034;-74
2022/08/05 08:01:04;;;;;;;7.25;4.82;;;;;;;29.04;34.45;99318.34;5034388;28;20102;-74
2022/08/05 08:03:30;;;;;;;13.73;10.70;;;;;;;29.48;35.05;99320.44;5034330;28;20039;-74
2022/08/05 08:05:55;;;;;;;6.10;5.03;;;;;;;29.37;33.55;99315.06;5024943;28;20488;-73
2022/08/05 08:08:21;;;;;;;7.55;5.05;;;;;;;29.38;33.28;99310.91;5031962;28;20036;-72
2022/08/05 08:10:46;;;;;;;102.82;19.88;;;;;;;29.17;35.02;99312.53;5026275;28;20038;-73
2022/08/05 08:13:12;;;;;;;15.75;7.03;;;;;;;29.10;33.33;99311.50;5018188;28;20109;-74
2022/08/05 08:15:37;;;;;;;63.65;13.68;;;;;;;29.62;34.13;99304.69;5030529;28;20026;-73
2022/08/05 08:18:03;;;;;;;25.85;7.15;;;;;;;29.84;32.60;99304.66;5032306;28;20021;-73
2022/08/05 08:20:28;;;;;;;8.73;4.90;;;;;;;29.92;32.70;99308.03;5026250;28;20021;-72
2022/08/05 08:22:58;;;;;;;5.22;4.32;;;;;;;29.56;31.91;99302.44;5023667;28;20409;-73
2022/08/05 08:25:24;;;;;;;8.45;4.38;;;;;;;29.78;31.90;99303.66;5033095;28;20071;-73
2022/08/05 08:27:49;;;;;;;4.93;4.28;;;;;;;29.74;30.86;99305.88;5045118;28;20025;-74
2022/08/05 08:30:15;;;;;;;6.15;4.75;;;;;;;29.52;31.69;99309.59;5021956;28;20024;-74
2022/08/05 08:32:41;;;;;;;10.15;4.47;;;;;;;30.16;32.22;99301.75;5022500;28;20121;-73
2022/08/05 08:35:07;;;;;;;10.30;4.55;;;;;;;30.47;31.89;99301.72;5031036;28;20101;-74
2022/08/05 08:37:33;;;;;;;49.63;8.55;;;;;;;30.60;31.65;99295.00;5027444;28;20049;-71
2022/08/05 08:39:59;;;;;;;17.50;9.30;;;;;;;30.72;32.70;99299.84;5026234;28;20515;-73
2022/08/05 08:42:25;;;;;;;6.45;3.92;;;;;;;30.62;31.36;99290.34;5024300;28;20029;-71
2022/08/05 08:44:55;;;;;;;4.30;3.42;;;;;;;30.71;31.35;99297.44;5021066;28;20026;-73
2022/08/05 08:47:24;;;;;;;6.88;4.00;;;;;;;30.94;30.14;99293.91;5032505;28;20118;-73
2022/08/05 08:49:52;;;;;;;5.03;4.03;;;;;;;30.29;29.65;99293.00;5033034;28;20364;-73
2022/08/05 08:52:22;;;;;;;10.00;3.80;;;;;;;30.18;31.51;99288.47;5025272;28;20032;-72
2022/08/05 08:54:51;;;;;;;5.00;3.20;;;;;;;30.53;30.02;99287.47;5022791;28;20065;-73
2022/08/05 08:57:18;;;;;;;22.08;11.32;;;;;;;30.98;30.12;99279.31;5028875;28;20060;-72
2022/08/05 08:59:43;;;;;;;16.50;6.57;;;;;;;31.38;29.62;99271.78;5031756;28;20038;-73
2022/08/05 09:02:10;;;;;;;15.20;10.73;;;;;;;31.52;29.43;99273.16;5025751;28;20025;-75
2022/08/05 09:04:39;;;;;;;7.20;3.70;;;;;;;31.46;29.00;99267.25;5028666;28;20029;-73
2022/08/05 09:07:07;;;;;;;4.97;3.83;;;;;;;31.65;28.94;99268.00;5040394;28;20025;-74
2022/08/05 09:09:34;;;;;;;7.88;3.70;;;;;;;31.75;29.25;99274.56;5024057;28;20021;-74
2022/08/05 09:12:01;;;;;;;4.93;3.10;;;;;;;31.65;28.74;99265.09;5023113;28;20032;-74
2022/08/05 09:14:27;;;;;;;7.30;4.78;;;;;;;32.17;29.15;99263.47;5030212;28;20049;-74
2022/08/05 09:16:53;;;;;;;5.93;3.42;;;;;;;32.30;27.47;99266.13;5028635;28;20400;-74
2022/08/05 09:19:19;;;;;;;9.68;3.28;;;;;;;32.41;26.57;99262.72;5030655;28;20025;-72
2022/08/05 09:21:45;;;;;;;5.47;3.60;;;;;;;32.41;27.36;99263.53;5024337;28;20025;-74
2022/08/05 09:24:12;;;;;;;11.15;3.33;;;;;;;32.55;28.05;99256.16;5028157;28;20021;-75
2022/08/05 09:26:38;;;;;;;5.20;3.53;;;;;;;32.51;25.93;99249.78;5029238;28;20033;-77
2022/08/05 09:29:07;;;;;;;6.80;3.22;;;;;;;32.38;25.91;99247.13;5032447;28;20446;-74
2022/08/05 09:31:33;;;;;;;7.75;3.70;;;;;;;32.60;26.18;99252.63;5032406;28;20028;-73
2022/08/05 09:34:06;;;;;;;9.65;3.22;;;;;;;32.91;25.77;99245.63;5025961;28;20071;-72
2022/08/05 09:36:51;;;;;;;6.03;5.43;;;;;;;33.22;24.86;99248.56;5041357;28;20026;-72
2022/08/05 09:39:18;;;;;;;8.20;6.07;;;;;;;33.20;25.17;99243.25;5025881;28;20033;-75
2022/08/05 09:41:57;;;;;;;8.23;5.10;;;;;;;33.30;24.88;99252.66;5028436;28;20094;-75
2022/08/05 09:44:43;;;;;;;5.22;2.97;;;;;;;32.90;25.31;99246.09;5023234;28;20111;-76
2022/08/05 09:47:21;;;;;;;9.15;3.50;;;;;;;32.57;25.90;99238.31;5031388;28;20029;-74
2022/08/05 09:49:55;;;;;;;4.97;3.40;;;;;;;32.77;25.68;99243.47;5020530;28;20053;-72
2022/08/05 09:52:30;;;;;;;6.65;6.05;;;;;;;33.14;25.46;99231.56;5033983;28;20084;-74
2022/08/05 09:54:59;;;;;;;6.47;5.03;;;;;;;33.35;25.39;99227.97;5027371;28;20037;-71
2022/08/05 09:57:33;;;;;;;5.60;2.90;;;;;;;33.15;24.61;99229.47;5027910;28;20411;-71
2022/08/05 10:00:09;;;;;;;5.88;3.20;;;;;;;33.21;24.69;99221.69;5020342;28;20025;-75
2022/08/05 10:02:46;;;;;;;6.47;3.25;;;;;;;33.51;24.44;99215.09;5020665;28;20025;-72
2022/08/05 10:05:12;;;;;;;8.93;4.40;;;;;;;33.74;25.38;99217.06;5016251;28;20488;-72
2022/08/05 10:07:49;;;;;;;8.73;3.67;;;;;;;33.71;24.89;99215.19;5028491;28;20030;-72
2022/08/05 10:10:17;;;;;;;9.77;8.05;;;;;;;33.93;24.85;99213.94;5017014;28;20024;-71
2022/08/05 10:12:45;;;;;;;9.95;9.05;;;;;;;34.07;24.58;99214.41;5026439;28;20029;-74
2022/08/05 10:15:19;;;;;;;4.68;3.30;;;;;;;33.97;25.15;99210.81;5023236;28;20103;-75
2022/08/05 10:18:06;;;;;;;9.27;3.80;;;;;;;34.02;24.27;99210.91;5026639;28;20033;-75
2022/08/05 10:20:34;;;;;;;4.63;3.72;;;;;;;33.83;23.99;99206.66;5024897;28;20464;-74
2022/08/05 10:23:00;;;;;;;12.23;10.07;;;;;;;33.89;23.59;99204.63;5021150;28;20048;-75
2022/08/05 10:25:26;;;;;;;8.98;3.13;;;;;;;33.96;23.22;99197.59;5024406;28;20502;-74
2022/08/05 10:27:55;;;;;;;3.83;2.45;;;;;;;34.09;22.48;99195.22;5025159;28;20030;-72
2022/08/05 10:30:20;;;;;;;4.85;2.88;;;;;;;33.68;23.77;99189.28;5020248;28;20067;-74
2022/08/05 10:32:46;;;;;;;5.22;3.65;;;;;;;34.11;23.82;99185.97;5029057;28;20057;-73
2022/08/05 10:35:13;;;;;;;3.72;3.42;;;;;;;34.36;23.20;99186.56;5030358;28;20029;-73
2022/08/05 10:37:40;;;;;;;8.50;3.05;;;;;;;34.48;22.87;99182.50;5027591;28;20025;-74
2022/08/05 10:40:15;;;;;;;3.38;3.08;;;;;;;34.62;22.47;99186.66;5016530;28;20104;-74
2022/08/05 10:42:46;;;;;;;3.97;3.40;;;;;;;34.51;22.38;99169.94;5030587;28;20056;-74
2022/08/05 10:45:14;;;;;;;7.88;3.55;;;;;;;34.10;23.40;99179.41;5029249;28;20029;-73
2022/08/05 10:47:43;;;;;;;7.07;3.90;;;;;;;33.84;23.94;99168.44;5026080;28;20017;-74
2022/08/05 10:50:12;;;;;;;4.22;3.15;;;;;;;34.13;23.71;99168.88;5038263;28;20515;-74
2022/08/05 10:52:44;;;;;;;7.18;3.33;;;;;;;34.31;22.84;99164.88;5030369;28;20053;-74
2022/08/05 10:55:12;;;;;;;6.78;3.38;;;;;;;34.23;23.65;99160.84;5030329;28;20488;-74
2022/08/05 10:57:42;;;;;;;3.28;2.97;;;;;;;34.55;23.47;99160.97;5028938;28;20044;-74
2022/08/05 11:00:12;;;;;;;6.20;3.33;;;;;;;34.88;23.63;99164.78;5021509;28;20026;-74
2022/08/05 11:02:57;;;;;;;7.13;3.58;;;;;;;34.65;22.45;99158.72;5027778;28;20033;-74
2022/08/05 11:05:23;;;;;;;5.78;3.17;;;;;;;34.95;23.21;99164.28;5027710;28;20037;-74
2022/08/05 11:08:03;;;;;;;6.18;3.83;;;;;;;33.90;23.03;99151.13;5027647;28;20026;-73
2022/08/05 11:10:29;;;;;;;7.95;3.10;;;;;;;33.37;23.82;99153.75;5042352;28;20037;-72
2022/08/05 11:12:56;;;;;;;5.00;3.13;;;;;;;34.33;23.98;99144.06;5031120;28;20037;-72
2022/08/05 11:15:34;;;;;;;6.63;3.47;;;;;;;34.85;23.45;99144.13;5023098;28;20045;-71
2022/08/05 11:18:22;;;;;;;6.60;3.03;;;;;;;34.98;22.38;99149.56;5028612;28;20025;-72
2022/08/05 11:20:53;;;;;;;7.53;3.05;;;;;;;34.82;22.69;99130.66;5028905;28;20037;-72
2022/08/05 11:23:40;;;;;;;5.15;3.45;;;;;;;34.99;23.02;99132.91;5027376;28;20026;-71
2022/08/05 11:26:20;;;;;;;3.75;2.60;;;;;;;35.15;21.82;99140.22;5028991;28;20037;-72
2022/08/05 11:28:50;;;;;;;8.57;3.30;;;;;;;35.11;21.95;99134.63;5021348;28;20146;-73
2022/08/05 11:31:16;;;;;;;4.88;2.92;;;;;;;35.24;22.36;99130.53;5025914;28;20097;-71
2022/08/05 11:33:47;;;;;;;4.55;4.15;;;;;;;35.41;22.32;99128.53;5027667;28;20120;-73
2022/08/05 11:36:15;;;;;;;3.95;3.55;;;;;;;34.68;22.03;99128.66;5024135;28;20025;-75